WetterOnline ( http://www.wetteronline.de )

Wetter aktuell Bersteland

Aktuelles Wetter: Baruth (55m)

6-stündlich | Neueste Meldungen
Ortszeit Temperatur Wetter
Mo, 25.03. 1:00 -1.0° C wolkig
So, 24.03. 19:00 8.4° C bewölkt
So, 24.03. 13:00 12.1° C wolkig
So, 24.03. 7:00 1.4° C Nebel
So, 24.03. 1:00 8.8° C bedeckt
Sa, 23.03. 19:00 9.5° C wolkig
Sa, 23.03. 13:00 18.8° C wolkenlos
Sa, 23.03. 7:00 3.3° C wolkenlos
Ortszeit Temperatur Wetter
Mo, 25.03. 6:00 2.8° C bewölkt
Mo, 25.03. 5:50 2.8° C bewölkt
Mo, 25.03. 5:40 2.7° C bewölkt
Mo, 25.03. 5:30 2.2° C wolkig
Mo, 25.03. 5:20 2.2° C wolkig
Mo, 25.03. 5:10 2.4° C bewölkt
Mo, 25.03. 5:00 1.8° C leicht bewölkt
Mo, 25.03. 4:30 1.9° C bewölkt
Mo, 25.03. 4:00 1.8° C bewölkt
Mo, 25.03. 3:30 0.5° C bewölkt
Mo, 25.03. 3:00 1.3° C bewölkt
Ortszeit Relative Feuchte Sichtweite
Mo, 25.03. 1:00 92% 24 km
So, 24.03. 19:00 53% 60 km
So, 24.03. 13:00 50% 26 km
So, 24.03. 7:00 99% 100 m
So, 24.03. 1:00 85% 5.0 km
Sa, 23.03. 19:00 79% 7 km
Sa, 23.03. 13:00 49% 19 km
Sa, 23.03. 7:00 98% 1.7 km
Ortszeit Relative Feuchte Sichtweite
Mo, 25.03. 6:00 79% 26 km
Mo, 25.03. 5:50 79% -
Mo, 25.03. 5:40 79% -
Mo, 25.03. 5:30 80% 23 km
Mo, 25.03. 5:20 80% -
Mo, 25.03. 5:10 79% -
Mo, 25.03. 5:00 79% 24 km
Mo, 25.03. 4:30 80% 27 km
Mo, 25.03. 4:00 80% 35 km
Mo, 25.03. 3:30 86% 30 km
Mo, 25.03. 3:00 83% 35 km
Ortszeit Niederschlagsmenge Niederschlagsart
Mo, 25.03. 1:00 0.0 l/m2 in 6 Std. -
So, 24.03. 19:00 0.0 l/m2 in 12 Std. -
So, 24.03. 13:00 0.0 l/m2 in 6 Std. -
So, 24.03. 7:00 0.0 l/m2 in 12 Std. -
So, 24.03. 1:00 0.0 l/m2 in 6 Std. -
Sa, 23.03. 19:00 0.0 l/m2 in 12 Std. -
Sa, 23.03. 13:00 0.0 l/m2 in 6 Std. -
Sa, 23.03. 7:00 0.0 l/m2 in 12 Std. -
Ortszeit Niederschlagsmenge Niederschlagsart
Mo, 25.03. 6:00 0.0 l/m2 in 1 Std. -
Mo, 25.03. 5:50 keine Meldung -
Mo, 25.03. 5:40 keine Meldung -
Mo, 25.03. 5:30 0.0 l/m2 in 1 Std. -
Mo, 25.03. 5:20 keine Meldung -
Mo, 25.03. 5:10 keine Meldung -
Mo, 25.03. 5:00 0.0 l/m2 in 1 Std. -
Mo, 25.03. 4:30 0.0 l/m2 in 1 Std. -
Mo, 25.03. 4:00 0.0 l/m2 in 1 Std. -
Mo, 25.03. 3:30 0.0 l/m2 in 1 Std. -
Mo, 25.03. 3:00 0.0 l/m2 in 1 Std. -
Ortszeit Stärke Spitze Richtung
km/h Bft. km/h Grad Sektor
Mo, 25.03. 1:00 0 0 11 - -
So, 24.03. 19:00 7 2 25 310° NW
So, 24.03. 13:00 9 2 20 320° NW
So, 24.03. 7:00 4 1 11 240° SW
So, 24.03. 1:00 4 1 18 350° N
Sa, 23.03. 19:00 7 2 32 300° NW
Sa, 23.03. 13:00 15 3 24 260° W
Sa, 23.03. 7:00 7 2 18 110° O
Ortszeit Stärke Spitze Richtung
km/h Bft. km/h Grad Sektor
Mo, 25.03. 6:00 15 3 20 240° SW
Mo, 25.03. 5:50 15 3 - 240° SW
Mo, 25.03. 5:40 14 3 - 240° SW
Mo, 25.03. 5:30 13 3 20 240° SW
Mo, 25.03. 5:20 13 3 - 240° SW
Mo, 25.03. 5:10 14 3 - 240° SW
Mo, 25.03. 5:00 13 3 19 250° W
Mo, 25.03. 4:30 11 2 18 240° SW
Mo, 25.03. 4:00 9 2 19 290° W
Mo, 25.03. 3:30 7 2 11 180° S
Mo, 25.03. 3:00 4 1 11 270° W
Ortszeit Untergrenze Bedeckung Gattung
total tief tief mittel hoch
Mo, 25.03. 1:00 1440 m 6/8 6/8 - - -
So, 24.03. 19:00 1380 m 8/8 4/8 - - -
So, 24.03. 13:00 1230 m 6/8 3/8 - - -
So, 24.03. 7:00 <30 m 7/8 0/8 - - -
So, 24.03. 1:00 720 m 8/8 8/8 - - -
Sa, 23.03. 19:00 9000 m 8/8 0/8 - - -
Sa, 23.03. 13:00 - 0/8 0/8 - - -
Sa, 23.03. 7:00 - 0/8 0/8 - - -
Ortszeit Bedeckungsgrad in Achtel und Wolkenuntergrenze
Mo, 25.03. 6:00 3(1170m) 6(1440m) 8(3000m)
Mo, 25.03. 5:50 3(1170m) 6(1440m) 8(3000m)
Mo, 25.03. 5:40 5(1200m) 7(1500m) 8(3000m)
Mo, 25.03. 5:30 2(1170m) 3(1500m) 8(3000m)
Mo, 25.03. 5:20 2(1170m) 3(1500m) 8(3000m)
Mo, 25.03. 5:10 3(1200m) 6(2700m) 7(3000m)
Mo, 25.03. 5:00 1(1260m) 4(3000m)
Mo, 25.03. 4:30 1(1410m) 6(1500m) 7(3000m)
Mo, 25.03. 4:00 7(1500m) 7(3600m)
Mo, 25.03. 3:30 7(1500m) 8(3600m)
Mo, 25.03. 3:00 7(3600m) 7(3600m)
Ortszeit Luftdruck NN (hPa) Tendenz (hPa in 3 Std.)
Mo, 25.03. 1:00 1019 - 1,6
So, 24.03. 19:00 1021 - 0,6
So, 24.03. 13:00 1025 - 2,2
So, 24.03. 7:00 1028 - 0,5
So, 24.03. 1:00 1029 0,0
Sa, 23.03. 19:00 1028 + 1,2
Sa, 23.03. 13:00 1025 - 0,3
Sa, 23.03. 7:00 1026 - 0,7
Ortszeit Luftdruck NN (hPa) Tendenz (hPa in 3 Std.)
Mo, 25.03. 6:00 1014 - 2,8
Mo, 25.03. 5:50 1014 keine Meldung
Mo, 25.03. 5:40 1014 keine Meldung
Mo, 25.03. 5:30 1015 - 2,7
Mo, 25.03. 5:20 1015 keine Meldung
Mo, 25.03. 5:10 1015 keine Meldung
Mo, 25.03. 5:00 1015 - 2,9
Mo, 25.03. 4:30 1015 - 3,0
Mo, 25.03. 4:00 1016 - 2,9
Mo, 25.03. 3:30 1016 - 3,0
Mo, 25.03. 3:00 1017 - 2,6
Ortszeit Schneehöhe (cm)
Mo, 25.03. 1:00 0
So, 24.03. 19:00 0
So, 24.03. 13:00 0
So, 24.03. 7:00 0
So, 24.03. 1:00 0
Sa, 23.03. 19:00 0
Sa, 23.03. 13:00 0
Sa, 23.03. 7:00 0
Ortszeit Schneehöhe (cm)
Mo, 25.03. 6:00 0
Mo, 25.03. 5:50 0
Mo, 25.03. 5:40 0
Mo, 25.03. 5:30 0
Mo, 25.03. 5:20 0
Mo, 25.03. 5:10 0
Mo, 25.03. 5:00 0
Mo, 25.03. 4:30 0
Mo, 25.03. 4:00 0
Mo, 25.03. 3:30 0
Mo, 25.03. 3:00 0
Link zu dieser Seite / Seite empfehlen

Das Wetter in ...